createdAt,value
2022-08-03T00:00:36.613Z,98072.41
2022-08-03T00:03:06.504Z,98072.25
2022-08-03T00:05:34.752Z,98067.88
2022-08-03T00:08:02.883Z,98062.41
2022-08-03T00:10:32.498Z,98065.63
2022-08-03T00:13:00.763Z,98064.00
2022-08-03T00:15:28.937Z,98070.47
2022-08-03T00:17:57.034Z,98073.72
2022-08-03T00:20:29.123Z,98064.06
2022-08-03T00:22:57.064Z,98069.72
2022-08-03T00:25:25.630Z,98071.97
2022-08-03T00:27:53.605Z,98060.38
2022-08-03T00:30:22.028Z,98053.31
2022-08-03T00:32:54.765Z,98061.22
2022-08-03T00:35:36.621Z,98053.94
2022-08-03T00:38:06.753Z,98057.03
2022-08-03T00:40:35.096Z,98056.88
2022-08-03T00:43:08.987Z,98055.25
2022-08-03T00:45:38.497Z,98060.25
2022-08-03T00:48:31.059Z,98055.09
2022-08-03T00:50:56.230Z,98063.28
2022-08-03T00:53:28.392Z,98060.88
2022-08-03T00:56:00.387Z,98068.28
2022-08-03T00:58:28.523Z,98052.50
2022-08-03T01:00:56.772Z,98062.31
2022-08-03T01:03:24.910Z,98061.03
2022-08-03T01:05:57.514Z,98057.97
2022-08-03T01:08:32.170Z,98062.16
2022-08-03T01:11:06.755Z,98059.09
2022-08-03T01:14:02.399Z,98062.78
2022-08-03T01:16:36.881Z,98057.19
2022-08-03T01:19:31.757Z,98048.47
2022-08-03T01:22:12.524Z,98051.38
2022-08-03T01:24:49.683Z,98047.19
2022-08-03T01:27:20.986Z,98040.56
2022-08-03T01:30:00.455Z,98039.25
2022-08-03T01:32:59.599Z,98043.47
2022-08-03T01:35:29.580Z,98041.53
2022-08-03T01:37:59.987Z,98047.50
2022-08-03T01:40:29.981Z,98039.75
2022-08-03T01:43:08.783Z,98030.72
2022-08-03T01:45:44.591Z,98024.44
2022-08-03T01:48:13.756Z,98032.34
2022-08-03T01:50:41.928Z,98034.75
2022-08-03T01:53:11.123Z,98034.94
2022-08-03T01:55:39.932Z,98027.03
2022-08-03T01:58:08.910Z,98026.22
2022-08-03T02:00:39.096Z,98032.97
2022-08-03T02:03:07.901Z,98029.75
2022-08-03T02:05:36.431Z,98030.72
2022-08-03T02:08:07.060Z,98022.66
2022-08-03T02:10:36.971Z,98019.75
2022-08-03T02:13:07.250Z,98023.72
2022-08-03T02:15:35.948Z,98014.97
2022-08-03T02:18:07.966Z,98009.66
2022-08-03T02:20:36.561Z,98023.66
2022-08-03T02:23:06.655Z,98017.22
2022-08-03T02:25:36.856Z,98019.63
2022-08-03T02:28:12.262Z,98020.75
2022-08-03T02:30:42.301Z,98019.16
2022-08-03T02:33:23.679Z,98021.88
2022-08-03T02:35:52.846Z,98030.09
2022-08-03T02:38:23.410Z,98032.31
2022-08-03T02:40:54.503Z,98026.53
2022-08-03T02:43:25.786Z,98026.84
2022-08-03T02:45:55.736Z,98027.34
2022-08-03T02:48:28.666Z,98021.69
2022-08-03T02:51:00.113Z,98020.72
2022-08-03T02:53:29.027Z,98019.09
2022-08-03T02:56:01.586Z,98016.22
2022-08-03T02:58:30.617Z,98016.84
2022-08-03T03:00:58.990Z,98013.63
2022-08-03T03:03:29.807Z,98017.34
2022-08-03T03:06:02.446Z,98014.63
2022-08-03T03:08:34.070Z,98017.34
2022-08-03T03:11:03.062Z,98018.34
2022-08-03T03:13:44.118Z,98011.06
2022-08-03T03:16:14.307Z,98010.75
2022-08-03T03:18:45.201Z,98015.41
2022-08-03T03:21:14.497Z,98013.91
2022-08-03T03:23:42.986Z,98018.19
2022-08-03T03:26:11.126Z,98013.44
2022-08-03T03:28:39.261Z,98009.72
2022-08-03T03:31:07.813Z,98006.19
2022-08-03T03:33:36.907Z,98006.00
2022-08-03T03:36:07.126Z,98010.22
2022-08-03T03:38:35.461Z,98013.03
2022-08-03T03:41:03.785Z,98015.44
2022-08-03T03:43:31.891Z,98009.47
2022-08-03T03:46:00.077Z,98015.75
2022-08-03T03:48:28.259Z,98008.28
2022-08-03T03:50:57.357Z,98015.44
2022-08-03T03:53:27.434Z,98008.84
2022-08-03T03:55:57.847Z,98016.06
2022-08-03T03:58:30.242Z,98010.91
2022-08-03T04:00:59.189Z,98007.59
2022-08-03T04:03:27.248Z,98005.31
2022-08-03T04:06:12.665Z,98009.31
2022-08-03T04:08:59.684Z,98013.16
2022-08-03T04:11:31.539Z,98017.78
2022-08-03T04:14:02.290Z,98015.00
2022-08-03T04:16:33.892Z,98014.31
2022-08-03T04:19:04.761Z,98021.78
2022-08-03T04:21:33.615Z,98020.34
2022-08-03T04:24:05.363Z,98024.72
2022-08-03T04:26:36.286Z,98016.22
2022-08-03T04:29:05.694Z,98012.66
2022-08-03T04:31:33.826Z,98019.13
2022-08-03T04:34:02.074Z,98017.38
2022-08-03T04:36:34.282Z,98017.75
2022-08-03T04:39:06.160Z,98022.22
2022-08-03T04:42:04.721Z,98032.66
2022-08-03T04:44:28.469Z,98028.81
2022-08-03T04:46:57.810Z,98022.84
2022-08-03T04:49:26.827Z,98028.81
2022-08-03T04:51:55.514Z,98034.09
2022-08-03T04:54:25.020Z,98032.47
2022-08-03T04:56:53.025Z,98042.28
2022-08-03T04:59:21.232Z,98038.25
2022-08-03T05:01:49.478Z,98039.88
2022-08-03T05:04:17.479Z,98031.84
2022-08-03T05:06:48.159Z,98037.00
2022-08-03T05:09:33.491Z,98038.31
2022-08-03T05:12:09.853Z,98032.03
2022-08-03T05:14:39.065Z,98030.28
2022-08-03T05:17:07.278Z,98038.38
2022-08-03T05:19:36.738Z,98044.00
2022-08-03T05:22:05.006Z,98042.78
2022-08-03T05:24:33.091Z,98051.50
2022-08-03T05:27:01.203Z,98054.91
2022-08-03T05:29:30.814Z,98061.34
2022-08-03T05:31:58.985Z,98050.09
2022-08-03T05:34:27.276Z,98054.94
2022-08-03T05:36:55.509Z,98052.38
2022-08-03T05:39:24.392Z,98045.47
2022-08-03T05:41:52.410Z,98052.75
2022-08-03T05:44:20.626Z,98051.31
2022-08-03T05:46:50.154Z,98050.66
2022-08-03T05:49:18.363Z,98048.56
2022-08-03T05:51:46.682Z,98051.81
2022-08-03T05:54:55.531Z,98048.91
2022-08-03T05:57:16.505Z,98051.03
2022-08-03T05:59:53.688Z,98042.34
2022-08-03T06:02:27.335Z,98040.78
2022-08-03T06:04:55.542Z,98046.59
2022-08-03T06:07:23.889Z,98042.13
2022-08-03T06:10:35.244Z,98040.88
2022-08-03T06:12:41.459Z,98044.91
2022-08-03T06:15:11.435Z,98044.59
2022-08-03T06:17:49.246Z,98041.84
2022-08-03T06:20:19.396Z,98051.69
2022-08-03T06:22:51.296Z,98047.00
2022-08-03T06:25:29.304Z,98054.41
2022-08-03T06:28:00.267Z,98050.72
2022-08-03T06:30:32.310Z,98047.50
2022-08-03T06:33:02.286Z,98042.81
2022-08-03T06:35:30.528Z,98048.41
2022-08-03T06:37:58.690Z,98048.41
2022-08-03T06:40:31.220Z,98047.72
2022-08-03T06:43:00.070Z,98051.72
2022-08-03T06:45:31.715Z,98051.38
2022-08-03T06:48:07.579Z,98053.44
2022-08-03T06:50:36.888Z,98058.09
2022-08-03T06:53:05.885Z,98054.19
2022-08-03T06:55:34.179Z,98057.34
2022-08-03T06:58:10.531Z,98058.41
2022-08-03T07:00:38.878Z,98057.72
2022-08-03T07:03:08.257Z,98061.34
2022-08-03T07:05:36.290Z,98056.13
2022-08-03T07:08:04.521Z,98066.75
2022-08-03T07:10:32.579Z,98062.63
2022-08-03T07:13:00.636Z,98060.72
2022-08-03T07:15:54.599Z,98062.84
2022-08-03T07:18:17.895Z,98060.75
2022-08-03T07:20:57.689Z,98048.91
2022-08-03T07:23:25.803Z,98053.66
2022-08-03T07:25:53.926Z,98051.25
2022-08-03T07:28:22.247Z,98048.09
2022-08-03T07:30:50.477Z,98053.44
2022-08-03T07:33:19.835Z,98055.47
2022-08-03T07:35:47.905Z,98055.09
2022-08-03T07:38:16.334Z,98049.47
2022-08-03T07:40:46.262Z,98055.72
2022-08-03T07:43:14.615Z,98052.84
2022-08-03T07:45:42.501Z,98043.47
2022-08-03T07:48:12.593Z,98046.16
2022-08-03T07:50:42.065Z,98046.69
2022-08-03T07:53:10.287Z,98049.91
2022-08-03T07:55:38.487Z,98049.63
2022-08-03T07:58:09.417Z,98050.44
2022-08-03T08:00:37.413Z,98044.97
2022-08-03T08:03:06.356Z,98052.53
2022-08-03T08:05:37.757Z,98044.44
2022-08-03T08:08:08.499Z,98047.22
2022-08-03T08:10:36.946Z,98032.00
2022-08-03T08:13:05.687Z,98035.09
2022-08-03T08:15:34.176Z,98031.78
2022-08-03T08:18:03.551Z,98033.28
2022-08-03T08:20:34.903Z,98038.75
2022-08-03T08:23:09.557Z,98036.09
2022-08-03T08:25:57.252Z,98040.63
2022-08-03T08:28:31.145Z,98038.69
2022-08-03T08:31:02.646Z,98038.47
2022-08-03T08:33:48.337Z,98034.72
2022-08-03T08:36:19.161Z,98035.22
2022-08-03T08:38:48.417Z,98032.66
2022-08-03T08:41:16.980Z,98030.34
2022-08-03T08:43:45.024Z,98033.66
2022-08-03T08:46:23.434Z,98028.13
2022-08-03T08:48:52.970Z,98037.81
2022-08-03T08:51:22.906Z,98041.16
2022-08-03T08:53:54.149Z,98033.28
2022-08-03T08:56:25.559Z,98027.47
2022-08-03T08:58:57.309Z,98031.44
2022-08-03T09:01:25.364Z,98029.53
2022-08-03T09:03:54.474Z,98027.63
2022-08-03T09:06:22.552Z,98031.66
2022-08-03T09:08:50.468Z,98032.13
2022-08-03T09:11:55.707Z,98031.03
2022-08-03T09:14:39.341Z,98030.63
2022-08-03T09:17:03.083Z,98029.47
2022-08-03T09:19:32.163Z,98023.94
2022-08-03T09:22:18.620Z,98023.94
2022-08-03T09:25:21.541Z,98022.75
2022-08-03T09:27:47.352Z,98026.78
2022-08-03T09:30:33.099Z,98026.44
2022-08-03T09:33:04.212Z,98021.69
2022-08-03T09:35:53.209Z,98018.09
2022-08-03T09:38:24.038Z,98018.88
2022-08-03T09:40:54.842Z,98024.47
2022-08-03T09:43:28.514Z,98016.94
2022-08-03T09:46:04.160Z,98020.91
2022-08-03T09:48:35.019Z,98022.94
2022-08-03T09:51:13.516Z,98021.75
2022-08-03T09:53:59.255Z,98016.56
2022-08-03T09:56:40.511Z,98016.19
2022-08-03T09:59:10.360Z,98007.41
2022-08-03T10:01:39.697Z,98012.59
2022-08-03T10:04:07.610Z,98010.19
2022-08-03T10:06:35.532Z,98005.41
2022-08-03T10:09:09.268Z,98009.00
2022-08-03T10:11:41.826Z,98005.41
2022-08-03T10:14:18.945Z,97999.81
2022-08-03T10:16:48.044Z,97997.03
2022-08-03T10:19:18.188Z,97991.84
2022-08-03T10:21:51.122Z,97993.84
2022-08-03T10:24:26.298Z,97992.59
2022-08-03T10:26:55.257Z,97992.56
2022-08-03T10:29:26.159Z,97981.81
2022-08-03T10:31:58.196Z,97989.34
2022-08-03T10:34:28.838Z,97979.31
2022-08-03T10:36:59.145Z,97984.50
2022-08-03T10:39:39.098Z,97972.50
2022-08-03T10:42:10.680Z,97968.59
2022-08-03T10:44:44.046Z,97973.34
2022-08-03T10:47:12.806Z,97972.09
2022-08-03T10:49:40.896Z,97959.41
2022-08-03T10:52:31.723Z,97963.78
2022-08-03T10:55:16.216Z,97963.78
2022-08-03T10:57:45.862Z,97957.38
2022-08-03T11:00:18.996Z,97958.47
2022-08-03T11:03:19.190Z,97952.75
2022-08-03T11:05:49.167Z,97952.25
2022-08-03T11:08:29.088Z,97952.59
2022-08-03T11:11:02.271Z,97957.00
2022-08-03T11:13:34.005Z,97964.81
2022-08-03T11:16:07.230Z,97962.75
2022-08-03T11:18:37.594Z,97961.25
2022-08-03T11:21:08.639Z,97949.72
2022-08-03T11:24:05.649Z,97951.78
2022-08-03T11:26:35.151Z,97946.81
2022-08-03T11:29:30.393Z,97955.16
2022-08-03T11:31:59.837Z,97948.63
2022-08-03T11:34:27.731Z,97946.97
2022-08-03T11:37:22.444Z,97942.44
2022-08-03T11:39:55.545Z,97933.38
2022-08-03T11:42:57.385Z,97941.41
2022-08-03T11:45:25.225Z,97933.34
2022-08-03T11:47:55.819Z,97939.81
2022-08-03T11:50:24.471Z,97933.88
2022-08-03T11:52:52.766Z,97936.09
2022-08-03T11:55:22.148Z,97941.59
2022-08-03T11:59:03.415Z,97933.00
2022-08-03T12:00:40.908Z,97937.75
2022-08-03T12:03:12.354Z,97928.22
2022-08-03T12:05:51.054Z,97924.84
2022-08-03T12:08:30.349Z,97929.97
2022-08-03T12:11:00.320Z,97922.31
2022-08-03T12:14:35.763Z,97926.78
2022-08-03T12:16:19.644Z,97913.47
2022-08-03T12:18:56.531Z,97921.28
2022-08-03T12:21:25.238Z,97920.34
2022-08-03T12:23:59.066Z,97919.44
2022-08-03T12:26:27.483Z,97912.09
2022-08-03T12:28:55.544Z,97910.00
2022-08-03T12:31:23.672Z,97903.91
2022-08-03T12:34:01.912Z,97905.44
2022-08-03T12:36:30.851Z,97904.03
2022-08-03T12:39:01.244Z,97907.97
2022-08-03T12:41:31.279Z,97904.28
2022-08-03T12:43:59.614Z,97909.56
2022-08-03T12:46:33.074Z,97901.03
2022-08-03T12:49:10.996Z,97903.91
2022-08-03T12:51:43.233Z,97903.09
2022-08-03T12:54:11.891Z,97898.38
2022-08-03T12:57:00.852Z,97894.78
2022-08-03T12:59:34.792Z,97896.84
2022-08-03T13:02:04.596Z,97894.16
2022-08-03T13:04:39.102Z,97894.03
2022-08-03T13:07:14.268Z,97892.84
2022-08-03T13:09:44.001Z,97887.91
2022-08-03T13:12:13.425Z,97890.72
2022-08-03T13:14:41.321Z,97884.06
2022-08-03T13:17:09.430Z,97886.44
2022-08-03T13:19:39.161Z,97877.09
2022-08-03T13:22:14.475Z,97880.91
2022-08-03T13:24:43.561Z,97885.25
2022-08-03T13:28:02.516Z,97882.47
2022-08-03T13:30:00.320Z,97884.75
2022-08-03T13:32:30.912Z,97883.00
2022-08-03T13:35:02.871Z,97890.34
2022-08-03T13:37:32.215Z,97884.38
2022-08-03T13:40:02.746Z,97871.00
2022-08-03T13:42:32.072Z,97869.25
2022-08-03T13:45:00.638Z,97866.84
2022-08-03T13:47:28.686Z,97871.38
2022-08-03T13:49:59.758Z,97869.91
2022-08-03T13:52:30.131Z,97864.50
2022-08-03T13:54:59.234Z,97862.28
2022-08-03T13:58:03.617Z,97866.81
2022-08-03T14:00:27.967Z,97865.19
2022-08-03T14:03:03.845Z,97857.47
2022-08-03T14:05:33.958Z,97854.75
2022-08-03T14:08:05.713Z,97859.25
2022-08-03T14:10:37.993Z,97854.75
2022-08-03T14:13:06.419Z,97842.56
2022-08-03T14:15:37.726Z,97844.28
2022-08-03T14:18:06.771Z,97853.00
2022-08-03T14:20:37.959Z,97850.19
2022-08-03T14:23:08.817Z,97850.19
2022-08-03T14:25:43.210Z,97848.13
2022-08-03T14:28:13.248Z,97839.06
2022-08-03T14:30:41.269Z,97840.19
2022-08-03T14:33:09.189Z,97842.16
2022-08-03T14:35:37.032Z,97838.78
2022-08-03T14:38:04.939Z,97843.88
2022-08-03T14:40:34.746Z,97837.34
2022-08-03T14:43:03.949Z,97837.03
2022-08-03T14:45:31.938Z,97832.31
2022-08-03T14:50:10.424Z,97836.72
2022-08-03T14:50:51.911Z,97828.19
2022-08-03T14:53:20.617Z,97821.72
2022-08-03T14:55:51.966Z,97823.81
2022-08-03T14:58:21.420Z,97818.63
2022-08-03T15:00:50.709Z,97816.75
2022-08-03T15:03:20.570Z,97823.78
2022-08-03T15:05:48.728Z,97812.63
2022-08-03T15:08:16.858Z,97817.75
2022-08-03T15:10:45.577Z,97814.34
2022-08-03T15:13:16.484Z,97811.59
2022-08-03T15:15:44.583Z,97810.22
2022-08-03T15:18:12.630Z,97809.75
2022-08-03T15:20:45.920Z,97805.69
2022-08-03T15:23:16.028Z,97807.38
2022-08-03T15:26:28.200Z,97801.97
2022-08-03T15:28:34.354Z,97796.31
2022-08-03T15:31:05.667Z,97797.34
2022-08-03T15:33:33.731Z,97800.59
2022-08-03T15:36:03.666Z,97799.38
2022-08-03T15:38:31.921Z,97790.06
2022-08-03T15:41:00.220Z,97789.13
2022-08-03T15:43:28.370Z,97789.28
2022-08-03T15:46:26.895Z,97774.59
2022-08-03T15:48:46.986Z,97789.38
2022-08-03T15:51:15.143Z,97779.44
2022-08-03T15:53:43.465Z,97779.03
2022-08-03T15:56:16.837Z,97787.06
2022-08-03T15:59:09.201Z,97787.00
2022-08-03T16:01:36.520Z,97782.78
2022-08-03T16:04:04.772Z,97777.22
2022-08-03T16:06:35.174Z,97778.38
2022-08-03T16:09:23.018Z,97781.75
2022-08-03T16:11:54.043Z,97773.47
2022-08-03T16:14:32.256Z,97779.06
2022-08-03T16:17:05.804Z,97768.34
2022-08-03T16:19:33.809Z,97762.84
2022-08-03T16:22:03.619Z,97761.69
2022-08-03T16:24:32.049Z,97766.41
2022-08-03T16:27:00.761Z,97753.00
2022-08-03T16:29:29.571Z,97757.16
2022-08-03T16:31:57.721Z,97764.09
2022-08-03T16:34:27.133Z,97757.34
2022-08-03T16:36:55.830Z,97758.19
2022-08-03T16:39:23.870Z,97754.22
2022-08-03T16:41:53.909Z,97751.06
2022-08-03T16:44:30.608Z,97754.28
2022-08-03T16:46:58.882Z,97756.34
2022-08-03T16:49:54.965Z,97748.41
2022-08-03T16:52:18.101Z,97746.84
2022-08-03T16:54:52.663Z,97743.25
2022-08-03T16:57:55.680Z,97738.50
2022-08-03T17:00:12.230Z,97734.13
2022-08-03T17:03:04.190Z,97732.13
2022-08-03T17:05:47.107Z,97736.56
2022-08-03T17:08:16.291Z,97734.22
2022-08-03T17:10:47.590Z,97735.06
2022-08-03T17:13:22.662Z,97739.44
2022-08-03T17:16:00.727Z,97731.88
2022-08-03T17:18:32.593Z,97737.88
2022-08-03T17:21:03.483Z,97742.28
2022-08-03T17:23:47.821Z,97742.75
2022-08-03T17:26:21.583Z,97740.41
2022-08-03T17:28:57.391Z,97740.81
2022-08-03T17:31:31.420Z,97754.44
2022-08-03T17:34:02.071Z,97738.88
2022-08-03T17:37:02.711Z,97739.69
2022-08-03T17:39:48.506Z,97746.47
2022-08-03T17:42:29.142Z,97746.97
2022-08-03T17:45:02.108Z,97748.97
2022-08-03T17:47:42.180Z,97749.00
2022-08-03T17:50:25.275Z,97755.78
2022-08-03T17:53:07.592Z,97749.03
2022-08-03T17:55:55.170Z,97762.63
2022-08-03T17:58:38.304Z,97757.06
2022-08-03T18:02:00.018Z,97765.44
2022-08-03T18:04:15.626Z,97764.69
2022-08-03T18:06:55.872Z,97764.72
2022-08-03T18:10:04.349Z,97767.94
2022-08-03T18:12:23.768Z,97771.16
2022-08-03T18:15:01.064Z,97768.78
2022-08-03T18:17:55.538Z,97779.94
2022-08-03T18:20:31.296Z,97779.97
2022-08-03T18:23:04.652Z,97775.19
2022-08-03T18:25:45.645Z,97774.41
2022-08-03T18:28:23.330Z,97767.25
2022-08-03T18:30:53.665Z,97777.97
2022-08-03T18:34:19.922Z,97777.97
2022-08-03T18:36:31.110Z,97777.19
2022-08-03T18:39:02.587Z,97780.00
2022-08-03T18:41:34.748Z,97774.41
2022-08-03T18:44:06.453Z,97776.75
2022-08-03T18:46:42.828Z,97774.75
2022-08-03T18:49:14.176Z,97777.91
2022-08-03T18:51:46.525Z,97778.66
2022-08-03T18:54:59.071Z,97775.47
2022-08-03T18:57:14.588Z,97780.56
2022-08-03T18:59:47.676Z,97786.84
2022-08-03T19:02:26.615Z,97786.00
2022-08-03T19:04:56.050Z,97779.59
2022-08-03T19:07:28.791Z,97773.59
2022-08-03T19:10:07.418Z,97775.47
2022-08-03T19:12:44.642Z,97776.22
2022-08-03T19:15:15.801Z,97780.53
2022-08-03T19:17:52.556Z,97783.25
2022-08-03T19:20:21.951Z,97792.75
2022-08-03T19:22:52.101Z,97788.75
2022-08-03T19:25:34.280Z,97787.88
2022-08-03T19:28:06.527Z,97792.03
2022-08-03T19:30:39.884Z,97791.91
2022-08-03T19:33:09.644Z,97788.53
2022-08-03T19:35:51.611Z,97787.91
2022-08-03T19:38:28.223Z,97788.88
2022-08-03T19:40:59.619Z,97791.50
2022-08-03T19:43:52.959Z,97794.94
2022-08-03T19:46:23.126Z,97790.84
2022-08-03T19:49:02.335Z,97789.94
2022-08-03T19:52:01.163Z,97791.72
2022-08-03T19:54:29.706Z,97793.91
2022-08-03T19:57:01.923Z,97796.81
2022-08-03T19:59:36.769Z,97797.78
2022-08-03T20:02:17.545Z,97795.63
2022-08-03T20:04:56.069Z,97795.38
2022-08-03T20:07:24.029Z,97798.63
2022-08-03T20:09:54.574Z,97797.91
2022-08-03T20:12:27.338Z,97793.50
2022-08-03T20:15:02.070Z,97793.81
2022-08-03T20:17:56.290Z,97796.22
2022-08-03T20:20:21.101Z,97797.31
2022-08-03T20:22:54.733Z,97793.38
2022-08-03T20:25:38.264Z,97790.69
2022-08-03T20:28:13.628Z,97798.53
2022-08-03T20:30:47.467Z,97789.75
2022-08-03T20:33:48.827Z,97795.22
2022-08-03T20:36:18.647Z,97791.22
2022-08-03T20:38:48.480Z,97794.84
2022-08-03T20:41:18.009Z,97791.34
2022-08-03T20:43:49.247Z,97789.09
2022-08-03T20:46:29.251Z,97802.13
2022-08-03T20:49:05.072Z,97794.91
2022-08-03T20:51:49.666Z,97793.69
2022-08-03T20:54:29.222Z,97790.91
2022-08-03T20:56:59.074Z,97799.50
2022-08-03T20:59:38.560Z,97793.47
2022-08-03T21:02:30.173Z,97803.72
2022-08-03T21:05:03.433Z,97798.94
2022-08-03T21:08:04.113Z,97797.25
2022-08-03T21:10:37.960Z,97789.69
2022-08-03T21:13:16.899Z,97801.19
2022-08-03T21:16:11.484Z,97791.66
2022-08-03T21:18:44.358Z,97802.66
2022-08-03T21:21:15.224Z,97805.25
2022-08-03T21:23:48.583Z,97800.09
2022-08-03T21:26:18.374Z,97804.22
2022-08-03T21:28:47.314Z,97803.78
2022-08-03T21:31:24.451Z,97804.88
2022-08-03T21:33:57.834Z,97803.63
2022-08-03T21:36:27.586Z,97804.34
2022-08-03T21:38:57.255Z,97798.81
2022-08-03T21:41:26.514Z,97799.53
2022-08-03T21:43:54.463Z,97799.09
2022-08-03T21:46:23.014Z,97800.28
2022-08-03T21:50:05.758Z,97806.22
2022-08-03T21:51:46.842Z,97800.28
2022-08-03T21:54:14.975Z,97797.03
2022-08-03T21:56:44.532Z,97800.59
2022-08-03T21:59:17.868Z,97798.53
2022-08-03T22:01:47.604Z,97798.81
2022-08-03T22:04:50.204Z,97805.50
2022-08-03T22:07:09.365Z,97804.63
2022-08-03T22:09:37.757Z,97800.03
2022-08-03T22:12:09.215Z,97788.19
2022-08-03T22:14:37.518Z,97798.06
2022-08-03T22:17:07.476Z,97796.09
2022-08-03T22:19:37.448Z,97794.06
2022-08-03T22:22:07.675Z,97798.78
2022-08-03T22:24:37.235Z,97799.94
2022-08-03T22:27:23.712Z,97804.59
2022-08-03T22:29:53.648Z,97798.97
2022-08-03T22:32:21.940Z,97812.94
2022-08-03T22:34:51.378Z,97803.41
2022-08-03T22:37:22.078Z,97804.03
2022-08-03T22:39:51.023Z,97798.44
2022-08-03T22:42:20.584Z,97804.31
2022-08-03T22:44:50.960Z,97807.00
2022-08-03T22:47:22.532Z,97806.63
2022-08-03T22:50:31.625Z,97807.06
2022-08-03T22:52:45.394Z,97805.84
2022-08-03T22:55:24.513Z,97803.88
2022-08-03T22:57:56.310Z,97799.88
2022-08-03T23:00:26.441Z,97808.00
2022-08-03T23:02:55.582Z,97806.66
2022-08-03T23:06:00.477Z,97804.97
2022-08-03T23:08:16.852Z,97808.81
2022-08-03T23:10:47.192Z,97807.56
2022-08-03T23:13:16.113Z,97808.63
2022-08-03T23:15:45.246Z,97807.81
2022-08-03T23:18:13.541Z,97809.41
2022-08-03T23:20:44.745Z,97806.22
2022-08-03T23:23:13.745Z,97806.47
2022-08-03T23:25:41.985Z,97805.59
2022-08-03T23:28:10.505Z,97811.44
2022-08-03T23:30:39.015Z,97813.72
2022-08-03T23:33:07.504Z,97811.69
2022-08-03T23:36:28.256Z,97810.34
2022-08-03T23:38:42.931Z,97804.63
2022-08-03T23:41:11.652Z,97804.09
2022-08-03T23:43:51.462Z,97809.94
2022-08-03T23:46:22.027Z,97803.34
2022-08-03T23:48:50.192Z,97804.69
2022-08-03T23:51:23.698Z,97803.88
2022-08-03T23:54:00.101Z,97814.78
2022-08-03T23:56:34.121Z,97814.69
2022-08-03T23:59:08.392Z,97811.94
